createdAt,value
2022-10-08T00:02:23.584Z,94.91
2022-10-08T00:07:30.739Z,94.46
2022-10-08T00:12:36.729Z,94.80
2022-10-08T00:17:44.075Z,94.83
2022-10-08T00:22:51.397Z,94.49
2022-10-08T00:27:59.872Z,94.42
2022-10-08T00:33:07.675Z,94.57
2022-10-08T00:38:15.441Z,94.38
2022-10-08T00:43:44.406Z,94.66
2022-10-08T00:48:54.754Z,95.13
2022-10-08T00:54:04.005Z,95.74
2022-10-08T00:59:14.614Z,95.06
2022-10-08T01:04:21.655Z,95.56
2022-10-08T01:09:35.692Z,95.80
2022-10-08T01:14:49.436Z,96.59
2022-10-08T01:20:27.969Z,96.56
2022-10-08T01:25:48.381Z,95.30
2022-10-08T01:31:01.445Z,95.67
2022-10-08T01:36:11.408Z,96.60
2022-10-08T01:41:21.973Z,95.81
2022-10-08T01:46:32.754Z,95.03
2022-10-08T01:51:47.397Z,95.25
2022-10-08T01:56:56.450Z,95.30
2022-10-08T02:02:09.656Z,95.69
2022-10-08T02:07:19.655Z,95.42
2022-10-08T02:12:27.065Z,95.66
2022-10-08T02:17:41.948Z,95.27
2022-10-08T02:22:59.039Z,95.19
2022-10-08T02:28:09.599Z,95.41
2022-10-08T02:33:23.770Z,95.44
2022-10-08T02:38:37.793Z,95.82
2022-10-08T02:43:49.227Z,95.61
2022-10-08T02:49:02.035Z,96.29
2022-10-08T02:54:10.708Z,96.10
2022-10-08T02:59:20.840Z,96.19
2022-10-08T03:04:32.854Z,96.03
2022-10-08T03:09:44.574Z,97.05
2022-10-08T03:14:53.352Z,97.65
2022-10-08T03:20:03.281Z,97.95
2022-10-08T03:25:11.325Z,97.88
2022-10-08T03:30:19.320Z,97.12
2022-10-08T03:35:27.133Z,96.21
2022-10-08T03:40:34.125Z,96.26
2022-10-08T03:45:50.290Z,96.15
2022-10-08T03:50:59.585Z,96.55
2022-10-08T03:56:08.846Z,96.41
2022-10-08T04:01:18.834Z,96.58
2022-10-08T04:06:26.618Z,96.35
2022-10-08T04:11:32.396Z,96.21
2022-10-08T04:16:39.510Z,95.90
2022-10-08T04:21:45.074Z,95.69
2022-10-08T04:26:52.488Z,95.70
2022-10-08T04:31:59.897Z,96.17
2022-10-08T04:37:07.189Z,96.59
2022-10-08T04:42:14.732Z,96.47
2022-10-08T04:47:22.010Z,96.90
2022-10-08T04:52:29.083Z,97.30
2022-10-08T04:57:36.014Z,97.33
2022-10-08T05:02:43.306Z,97.98
2022-10-08T05:07:50.655Z,98.83
2022-10-08T05:12:57.589Z,98.99
2022-10-08T05:18:04.700Z,99.12
2022-10-08T05:23:12.204Z,99.31
2022-10-08T05:28:19.276Z,99.33
2022-10-08T05:33:26.438Z,99.25
2022-10-08T05:38:35.345Z,99.47
2022-10-08T05:43:44.076Z,100.00
2022-10-08T05:48:55.161Z,100.00
2022-10-08T05:54:03.144Z,100.00
2022-10-08T05:59:17.739Z,100.00
2022-10-08T06:04:25.265Z,100.00
2022-10-08T06:09:33.032Z,100.00
2022-10-08T06:14:40.194Z,100.00
2022-10-08T06:19:50.771Z,100.00
2022-10-08T06:24:57.903Z,100.00
2022-10-08T06:30:05.704Z,100.00
2022-10-08T06:35:13.187Z,100.00
2022-10-08T06:40:21.428Z,100.00
2022-10-08T06:45:28.964Z,100.00
2022-10-08T06:50:39.706Z,100.00
2022-10-08T06:55:47.677Z,100.00
2022-10-08T07:01:04.109Z,100.00
2022-10-08T07:06:14.094Z,100.00
2022-10-08T07:11:22.399Z,100.00
2022-10-08T07:16:31.840Z,100.00
2022-10-08T07:21:39.097Z,100.00
2022-10-08T07:26:47.029Z,100.00
2022-10-08T07:31:54.748Z,100.00
2022-10-08T07:37:02.090Z,100.00
2022-10-08T07:42:10.179Z,100.00
2022-10-08T07:47:17.693Z,100.00
2022-10-08T07:52:24.891Z,100.00
2022-10-08T07:57:32.027Z,99.41
2022-10-08T08:02:39.383Z,97.37
2022-10-08T08:07:52.405Z,96.80
2022-10-08T08:13:00.439Z,95.96
2022-10-08T08:18:10.377Z,94.70
2022-10-08T08:23:18.957Z,93.63
2022-10-08T08:28:27.789Z,92.72
2022-10-08T08:33:35.473Z,91.36
2022-10-08T08:38:43.136Z,90.04
2022-10-08T08:43:58.725Z,88.48
2022-10-08T08:49:13.381Z,88.28
2022-10-08T08:54:23.589Z,87.49
2022-10-08T08:59:35.597Z,86.99
2022-10-08T09:04:50.121Z,85.34
2022-10-08T09:10:01.951Z,83.77
2022-10-08T09:15:22.684Z,82.30
2022-10-08T09:20:31.059Z,81.78
2022-10-08T09:25:49.180Z,81.12
2022-10-08T09:31:13.044Z,77.76
2022-10-08T09:36:32.570Z,77.31
2022-10-08T09:41:40.732Z,75.89
2022-10-08T09:46:49.532Z,74.83
2022-10-08T09:51:58.928Z,75.46
2022-10-08T09:57:08.033Z,74.75
2022-10-08T10:02:31.216Z,72.87
2022-10-08T10:07:45.946Z,71.38
2022-10-08T10:12:56.619Z,71.43
2022-10-08T10:18:13.717Z,71.90
2022-10-08T10:23:26.631Z,71.42
2022-10-08T10:28:42.098Z,69.95
2022-10-08T10:33:56.438Z,69.28
2022-10-08T10:39:10.367Z,70.07
2022-10-08T10:44:23.681Z,69.43
2022-10-08T10:49:38.614Z,69.05
2022-10-08T10:55:18.602Z,68.00
2022-10-08T11:00:29.066Z,67.72
2022-10-08T11:05:39.779Z,67.40
2022-10-08T11:11:02.531Z,67.14
2022-10-08T11:16:23.729Z,65.85
2022-10-08T11:21:49.839Z,65.75
2022-10-08T11:27:07.067Z,66.29
2022-10-08T11:32:16.591Z,65.88
2022-10-08T11:37:31.589Z,65.99
2022-10-08T11:42:48.887Z,66.45
2022-10-08T11:47:58.129Z,66.40
2022-10-08T11:53:20.364Z,66.76
2022-10-08T11:58:32.413Z,67.21
2022-10-08T12:03:46.457Z,66.99
2022-10-08T12:09:04.480Z,66.64
2022-10-08T12:14:46.565Z,66.33
2022-10-08T12:20:22.190Z,66.75
2022-10-08T12:25:39.223Z,67.18
2022-10-08T12:30:49.804Z,66.71
2022-10-08T12:36:05.380Z,65.11
2022-10-08T12:41:22.376Z,64.06
2022-10-08T12:46:32.980Z,62.93
2022-10-08T12:51:47.883Z,62.46
2022-10-08T12:56:55.697Z,63.42
2022-10-08T13:02:04.683Z,62.91
2022-10-08T13:07:28.725Z,62.30
2022-10-08T13:12:35.992Z,62.06
2022-10-08T13:17:43.467Z,63.13
2022-10-08T13:22:51.265Z,64.07
2022-10-08T13:28:15.934Z,64.13
2022-10-08T13:33:25.104Z,63.63
2022-10-08T13:38:37.479Z,63.24
2022-10-08T13:43:45.205Z,63.95
2022-10-08T13:48:52.818Z,63.90
2022-10-08T13:54:00.394Z,64.66
2022-10-08T13:59:08.025Z,64.74
2022-10-08T14:04:15.701Z,64.79
2022-10-08T14:09:25.816Z,65.60
2022-10-08T14:14:33.531Z,66.02
2022-10-08T14:19:40.969Z,66.45
2022-10-08T14:24:49.712Z,66.91
2022-10-08T14:29:57.494Z,67.39
2022-10-08T14:35:05.086Z,67.35
2022-10-08T14:40:19.177Z,67.70
2022-10-08T14:45:26.530Z,68.14
2022-10-08T14:50:34.428Z,68.41
2022-10-08T14:56:07.502Z,68.90
2022-10-08T15:01:09.391Z,69.54
2022-10-08T15:06:16.731Z,69.93
2022-10-08T15:11:24.520Z,70.37
2022-10-08T15:16:32.034Z,70.87
2022-10-08T15:21:39.967Z,71.19
2022-10-08T15:26:47.767Z,71.94
2022-10-08T15:31:55.133Z,72.18
2022-10-08T15:37:03.890Z,72.73
2022-10-08T15:42:15.236Z,73.27
2022-10-08T15:47:22.511Z,73.64
2022-10-08T15:52:29.912Z,74.07
2022-10-08T15:57:37.731Z,74.57
2022-10-08T16:02:45.384Z,74.72
2022-10-08T16:07:52.969Z,74.87
2022-10-08T16:13:00.393Z,75.10
2022-10-08T16:18:07.685Z,75.44
2022-10-08T16:23:15.841Z,75.73
2022-10-08T16:28:23.222Z,76.05
2022-10-08T16:33:31.091Z,76.31
2022-10-08T16:38:40.910Z,76.71
2022-10-08T16:43:50.351Z,76.92
2022-10-08T16:49:00.094Z,77.14
2022-10-08T16:54:09.870Z,77.65
2022-10-08T16:59:22.215Z,77.70
2022-10-08T17:04:39.659Z,78.22
2022-10-08T17:09:50.020Z,78.58
2022-10-08T17:14:58.383Z,78.98
2022-10-08T17:20:06.889Z,79.41
2022-10-08T17:25:14.819Z,79.77
2022-10-08T17:30:24.189Z,80.38
2022-10-08T17:35:32.406Z,80.58
2022-10-08T17:40:40.434Z,80.76
2022-10-08T17:45:51.021Z,81.05
2022-10-08T17:50:56.886Z,81.25
2022-10-08T17:56:07.039Z,81.56
2022-10-08T18:01:17.195Z,82.07
2022-10-08T18:06:26.020Z,82.36
2022-10-08T18:11:35.781Z,82.82
2022-10-08T18:16:47.829Z,83.37
2022-10-08T18:21:55.822Z,83.42
2022-10-08T18:27:03.676Z,83.85
2022-10-08T18:32:11.914Z,84.04
2022-10-08T18:37:20.913Z,84.37
2022-10-08T18:42:28.808Z,84.51
2022-10-08T18:47:35.967Z,84.48
2022-10-08T18:52:47.589Z,85.10
2022-10-08T18:57:56.812Z,85.30
2022-10-08T19:03:05.362Z,85.53
2022-10-08T19:08:13.072Z,85.85
2022-10-08T19:13:21.259Z,86.01
2022-10-08T19:18:28.383Z,86.18
2022-10-08T19:23:35.817Z,86.51
2022-10-08T19:28:47.054Z,86.70
2022-10-08T19:33:55.955Z,86.99
2022-10-08T19:39:05.859Z,87.46
2022-10-08T19:44:13.497Z,87.46
2022-10-08T19:49:21.151Z,87.72
2022-10-08T19:54:28.763Z,88.04
2022-10-08T19:59:36.284Z,88.38
2022-10-08T20:04:45.063Z,88.40
2022-10-08T20:09:52.478Z,88.69
2022-10-08T20:14:59.631Z,88.46
2022-10-08T20:20:31.202Z,88.78
2022-10-08T20:25:36.276Z,88.80
2022-10-08T20:30:44.619Z,88.88
2022-10-08T20:35:52.835Z,89.05
2022-10-08T20:41:00.838Z,89.25
2022-10-08T20:46:10.755Z,89.14
2022-10-08T20:51:20.169Z,89.52
2022-10-08T20:56:28.621Z,89.49
2022-10-08T21:01:38.257Z,89.83
2022-10-08T21:06:47.028Z,89.87
2022-10-08T21:11:56.448Z,90.00
2022-10-08T21:17:03.864Z,90.15
2022-10-08T21:22:10.967Z,90.24
2022-10-08T21:27:18.274Z,90.24
2022-10-08T21:32:25.488Z,90.16
2022-10-08T21:37:32.776Z,90.25
2022-10-08T21:42:40.284Z,90.26
2022-10-08T21:47:48.103Z,90.31
2022-10-08T21:52:56.164Z,90.44
2022-10-08T21:58:06.097Z,90.88
2022-10-08T22:03:13.503Z,90.96
2022-10-08T22:08:21.102Z,91.28
2022-10-08T22:13:28.404Z,91.25
2022-10-08T22:18:36.348Z,91.39
2022-10-08T22:23:44.108Z,91.54
2022-10-08T22:28:51.856Z,91.70
2022-10-08T22:33:59.524Z,91.75
2022-10-08T22:39:07.105Z,91.53
2022-10-08T22:44:14.110Z,91.76
2022-10-08T22:49:21.064Z,91.42
2022-10-08T22:54:28.037Z,91.19
2022-10-08T22:59:35.628Z,90.71
2022-10-08T23:04:43.840Z,90.40
2022-10-08T23:09:50.791Z,89.74
2022-10-08T23:14:57.981Z,89.41
2022-10-08T23:20:05.613Z,88.90
2022-10-08T23:25:13.991Z,87.82
2022-10-08T23:30:42.222Z,87.21
2022-10-08T23:35:47.344Z,86.82
2022-10-08T23:40:59.362Z,86.72
2022-10-08T23:46:08.318Z,86.66
2022-10-08T23:51:17.104Z,85.28
2022-10-08T23:56:25.516Z,84.58
